Time;durP1;ratioP1;P1;durP2;ratioP2;P2;SDS_P1;SDS_P2;PMS_P1;PMS_P2;Temp;Humidity;BMP_temperature;BMP_pressure;BME280_temperature;BME280_humidity;BME280_pressure;Samples;Min_cycle;Max_cycle;Signal;HPM_P1;HPM_P2
2022/09/07 00:00:42;;;;;;;3.37;3.07;;;21.50;98.80;;;;;;5039666;28;20249;-70
2022/09/07 00:03:08;;;;;;;2.70;2.50;;;21.50;98.70;;;;;;5038722;28;20212;-70
2022/09/07 00:05:41;;;;;;;2.90;2.60;;;21.50;98.80;;;;;;5027532;28;20470;-70
2022/09/07 00:08:06;;;;;;;3.00;2.80;;;21.50;98.80;;;;;;5037853;28;20230;-69
2022/09/07 00:10:32;;;;;;;2.50;2.30;;;21.50;98.90;;;;;;5034881;28;20483;-71
2022/09/07 00:12:58;;;;;;;4.07;3.00;;;21.50;98.70;;;;;;5033183;28;20212;-70
2022/09/07 00:15:23;;;;;;;3.10;2.90;;;21.40;98.90;;;;;;5040687;28;20215;-70
2022/09/07 00:17:49;;;;;;;5.40;3.60;;;21.40;99.00;;;;;;5033703;28;20692;-70
2022/09/07 00:20:15;;;;;;;2.70;2.50;;;21.40;99.50;;;;;;5034580;28;20216;-70
2022/09/07 00:22:41;;;;;;;3.47;3.17;;;21.30;99.60;;;;;;5033876;28;20704;-70
2022/09/07 00:25:07;;;;;;;3.53;3.23;;;21.20;99.80;;;;;;5040057;28;20228;-70
2022/09/07 00:27:33;;;;;;;3.20;2.70;;;21.20;99.90;;;;;;5038240;28;20231;-69
2022/09/07 00:29:58;;;;;;;3.17;2.93;;;21.10;99.90;;;;;;5040479;28;20470;-70
2022/09/07 00:32:24;;;;;;;3.43;3.13;;;21.10;99.90;;;;;;5040380;28;20212;-70
2022/09/07 00:34:50;;;;;;;4.50;3.10;;;21.10;99.90;;;;;;5039697;28;20220;-70
2022/09/07 00:37:16;;;;;;;2.83;2.63;;;21.10;99.90;;;;;;5034370;28;20231;-70
2022/09/07 00:39:42;;;;;;;3.03;2.80;;;21.10;99.80;;;;;;5039571;28;20224;-69
2022/09/07 00:42:07;;;;;;;7.67;2.73;;;21.10;99.60;;;;;;5038086;28;20466;-70
2022/09/07 00:44:42;;;;;;;4.83;2.67;;;21.20;99.60;;;;;;5036947;28;20280;-69
2022/09/07 00:47:17;;;;;;;4.27;2.97;;;21.20;99.80;;;;;;5035892;28;20342;-69
2022/09/07 00:49:48;;;;;;;3.10;2.80;;;21.20;99.90;;;;;;5044267;28;20481;-68
2022/09/07 00:52:16;;;;;;;3.20;3.00;;;21.20;99.90;;;;;;5049351;28;20594;-70
2022/09/07 00:54:52;;;;;;;2.93;2.70;;;21.10;99.90;;;;;;5025978;28;20821;-70
2022/09/07 00:57:19;;;;;;;3.23;3.03;;;21.10;99.90;;;;;;5038765;28;20884;-70
2022/09/07 00:59:48;;;;;;;2.70;2.50;;;21.10;99.90;;;;;;5040698;28;20450;-69
2022/09/07 01:02:16;;;;;;;2.93;2.73;;;21.10;99.90;;;;;;5026902;28;20458;-69
2022/09/07 01:04:47;;;;;;;3.57;3.00;;;20.90;99.90;;;;;;5033835;28;20498;-69
2022/09/07 01:07:13;;;;;;;3.17;2.87;;;20.80;99.90;;;;;;5037662;28;20499;-70
2022/09/07 01:09:41;;;;;;;6.03;2.70;;;20.80;99.90;;;;;;5038788;28;20474;-69
2022/09/07 01:12:08;;;;;;;5.73;2.90;;;20.70;99.90;;;;;;5037825;28;20808;-70
2022/09/07 01:14:38;;;;;;;3.67;2.73;;;20.60;99.90;;;;;;5040584;28;20462;-70
2022/09/07 01:17:21;;;;;;;2.90;2.70;;;20.60;99.90;;;;;;5037561;28;20466;-70
2022/09/07 01:19:59;;;;;;;3.47;3.17;;;20.60;99.90;;;;;;5038492;28;20874;-70
2022/09/07 01:22:43;;;;;;;3.50;3.00;;;20.70;99.90;;;;;;5057555;28;20512;-70
2022/09/07 01:25:11;;;;;;;4.03;2.80;;;20.70;99.90;;;;;;5040790;28;20546;-70
2022/09/07 01:27:49;;;;;;;4.60;3.10;;;20.60;99.90;;;;;;5045991;28;20442;-70
2022/09/07 01:30:18;;;;;;;2.83;2.63;;;20.60;99.90;;;;;;5040679;28;20905;-68
2022/09/07 01:32:55;;;;;;;3.33;3.03;;;20.60;99.90;;;;;;5036556;28;21112;-69
2022/09/07 01:35:39;;;;;;;4.40;2.83;;;20.60;99.90;;;;;;5039068;28;20537;-70
2022/09/07 01:38:32;;;;;;;3.30;2.73;;;20.70;99.90;;;;;;5041297;28;20481;-69
2022/09/07 01:41:22;;;;;;;7.33;3.13;;;20.70;99.90;;;;;;5042017;28;20832;-69
2022/09/07 01:43:53;;;;;;;3.17;2.50;;;20.70;99.90;;;;;;5041874;28;20461;-70
2022/09/07 01:46:23;;;;;;;3.17;2.90;;;20.70;99.90;;;;;;5059037;28;20474;-71
2022/09/07 01:48:52;;;;;;;6.20;3.20;;;20.70;99.90;;;;;;5057111;28;20458;-70
2022/09/07 01:51:21;;;;;;;3.93;2.80;;;20.70;99.90;;;;;;5036894;28;20471;-70
2022/09/07 01:53:57;;;;;;;5.50;3.43;;;20.70;99.90;;;;;;5045517;28;20457;-68
2022/09/07 01:56:32;;;;;;;3.40;3.10;;;20.50;99.90;;;;;;5039631;28;20463;-69
2022/09/07 01:59:17;;;;;;;3.53;2.80;;;20.50;99.90;;;;;;5038053;28;20465;-70
2022/09/07 02:01:55;;;;;;;4.07;3.57;;;20.50;99.90;;;;;;5040174;28;20543;-69
2022/09/07 02:04:24;;;;;;;3.20;2.90;;;20.40;99.90;;;;;;5035136;28;20520;-70
2022/09/07 02:07:29;;;;;;;4.77;3.33;;;20.40;99.90;;;;;;5033149;28;20467;-69
2022/09/07 02:10:10;;;;;;;3.47;3.20;;;20.40;99.90;;;;;;5026720;28;21056;-70
2022/09/07 02:12:54;;;;;;;3.63;3.33;;;20.30;99.90;;;;;;5053850;28;20911;-70
2022/09/07 02:15:31;;;;;;;5.17;3.83;;;20.30;99.90;;;;;;5050566;28;20463;-70
2022/09/07 02:18:02;;;;;;;4.10;3.50;;;20.30;99.90;;;;;;5020897;28;20467;-70
2022/09/07 02:20:34;;;;;;;4.20;3.73;;;20.40;99.90;;;;;;5033571;28;20522;-70
2022/09/07 02:23:05;;;;;;;3.60;3.30;;;20.40;99.90;;;;;;5029221;28;20879;-71
2022/09/07 02:25:42;;;;;;;4.10;3.40;;;20.40;99.90;;;;;;5039571;28;20557;-71
2022/09/07 02:28:12;;;;;;;3.40;3.03;;;20.40;99.90;;;;;;5037508;28;20463;-70
2022/09/07 02:30:38;;;;;;;4.00;3.70;;;20.40;99.90;;;;;;5042443;28;20455;-70
2022/09/07 02:33:05;;;;;;;4.80;2.83;;;20.50;99.90;;;;;;5033249;28;20456;-69
2022/09/07 02:35:32;;;;;;;4.20;3.67;;;20.50;99.90;;;;;;5045800;28;20458;-70
2022/09/07 02:38:01;;;;;;;5.30;3.10;;;20.50;99.90;;;;;;5041477;28;20845;-70
2022/09/07 02:40:27;;;;;;;3.60;3.30;;;20.50;99.90;;;;;;5029426;28;20505;-70
2022/09/07 02:42:54;;;;;;;3.23;3.00;;;20.50;99.90;;;;;;5039415;28;20467;-69
2022/09/07 02:45:20;;;;;;;3.50;2.70;;;20.50;99.90;;;;;;5045230;28;20224;-70
2022/09/07 02:48:22;;;;;;;3.00;2.80;;;20.50;99.90;;;;;;5034395;28;20502;-69
2022/09/07 02:51:02;;;;;;;3.40;2.77;;;20.50;99.90;;;;;;5053231;28;21043;-70
2022/09/07 02:53:47;;;;;;;3.43;2.53;;;20.50;99.90;;;;;;5041044;28;20517;-70
2022/09/07 02:56:15;;;;;;;3.70;3.30;;;20.50;99.90;;;;;;5036298;28;20455;-70
2022/09/07 02:59:04;;;;;;;2.47;2.27;;;20.50;99.90;;;;;;5038118;28;20509;-70
2022/09/07 03:01:34;;;;;;;3.23;3.03;;;20.50;99.90;;;;;;5040609;28;20482;-70
2022/09/07 03:04:12;;;;;;;2.97;2.57;;;20.50;99.90;;;;;;5042553;28;21032;-69
2022/09/07 03:06:44;;;;;;;2.90;2.70;;;20.50;99.90;;;;;;5031116;28;20459;-70
2022/09/07 03:09:15;;;;;;;2.90;2.70;;;20.50;99.90;;;;;;5034687;28;20470;-70
2022/09/07 03:11:41;;;;;;;3.07;2.87;;;20.50;99.90;;;;;;5036888;28;20459;-71
2022/09/07 03:14:25;;;;;;;3.00;2.80;;;20.50;99.90;;;;;;5039789;28;20985;-70
2022/09/07 03:16:54;;;;;;;2.87;2.67;;;20.50;99.90;;;;;;5036750;28;20466;-70
2022/09/07 03:19:20;;;;;;;4.00;2.63;;;20.50;99.90;;;;;;5039017;28;21097;-70
2022/09/07 03:21:46;;;;;;;2.40;2.20;;;20.50;99.90;;;;;;5053127;28;20513;-70
2022/09/07 03:24:12;;;;;;;2.60;2.40;;;20.40;99.90;;;;;;5043857;28;20243;-69
2022/09/07 03:26:42;;;;;;;3.37;2.37;;;20.40;99.90;;;;;;5042044;28;20227;-69
2022/09/07 03:29:07;;;;;;;2.70;2.50;;;20.40;99.90;;;;;;5043978;28;20306;-69
2022/09/07 03:31:34;;;;;;;2.77;2.57;;;20.40;99.90;;;;;;5024180;28;24636;-69
2022/09/07 03:34:00;;;;;;;3.30;2.40;;;20.40;99.90;;;;;;5037973;28;20212;-70
2022/09/07 03:36:26;;;;;;;4.43;2.60;;;20.40;99.90;;;;;;5041526;28;21060;-70
2022/09/07 03:38:51;;;;;;;3.07;2.80;;;20.40;99.90;;;;;;5033257;28;20220;-69
2022/09/07 03:41:17;;;;;;;2.90;2.60;;;20.40;99.90;;;;;;5039573;28;20242;-70
2022/09/07 03:43:43;;;;;;;5.30;3.10;;;20.40;99.90;;;;;;5037027;28;20227;-70
2022/09/07 03:46:09;;;;;;;3.33;2.87;;;20.40;99.90;;;;;;5035554;28;20225;-71
2022/09/07 03:48:37;;;;;;;3.27;2.90;;;20.40;99.90;;;;;;5042194;28;20234;-70
2022/09/07 03:51:08;;;;;;;2.63;2.43;;;20.50;99.90;;;;;;5033323;28;20494;-70
2022/09/07 03:53:37;;;;;;;3.63;2.80;;;20.40;99.90;;;;;;5038810;28;20483;-70
2022/09/07 03:56:16;;;;;;;2.70;2.50;;;20.40;99.90;;;;;;5034020;28;20474;-70
2022/09/07 03:58:43;;;;;;;2.70;2.37;;;20.40;99.90;;;;;;5042239;28;20523;-68
2022/09/07 04:01:15;;;;;;;2.27;2.13;;;20.40;99.90;;;;;;5038874;28;20742;-70
2022/09/07 04:03:41;;;;;;;6.53;3.47;;;20.40;99.90;;;;;;5030324;28;20473;-70
2022/09/07 04:06:07;;;;;;;2.70;2.50;;;20.40;99.90;;;;;;5035399;28;20465;-70
2022/09/07 04:08:35;;;;;;;4.83;2.53;;;20.40;99.90;;;;;;5030868;28;20465;-68
2022/09/07 04:11:03;;;;;;;2.83;2.63;;;20.30;99.90;;;;;;5032809;28;20510;-70
2022/09/07 04:13:30;;;;;;;2.37;2.10;;;20.30;99.90;;;;;;5035425;28;20466;-70
2022/09/07 04:15:55;;;;;;;2.90;2.27;;;20.30;99.90;;;;;;5028718;28;20451;-69
2022/09/07 04:18:21;;;;;;;5.13;2.90;;;20.30;99.90;;;;;;5032097;28;20466;-70
2022/09/07 04:20:49;;;;;;;4.13;2.83;;;20.40;99.90;;;;;;5030990;28;20243;-70
2022/09/07 04:23:16;;;;;;;3.30;3.00;;;20.40;99.90;;;;;;5036572;28;20902;-70
2022/09/07 04:26:00;;;;;;;2.90;2.60;;;20.30;99.90;;;;;;5038083;28;20967;-68
2022/09/07 04:28:26;;;;;;;2.40;2.30;;;20.30;99.90;;;;;;5026243;28;20516;-69
2022/09/07 04:30:52;;;;;;;2.60;2.10;;;20.30;99.90;;;;;;5027545;28;21014;-71
2022/09/07 04:33:18;;;;;;;5.13;2.53;;;20.30;99.90;;;;;;5035432;28;20208;-70
2022/09/07 04:35:44;;;;;;;3.70;2.90;;;20.30;99.90;;;;;;5013667;28;20310;-71
2022/09/07 04:38:13;;;;;;;3.73;3.10;;;20.30;99.90;;;;;;5031259;28;20475;-69
2022/09/07 04:40:39;;;;;;;2.87;2.60;;;20.30;99.90;;;;;;5015697;28;20754;-70
2022/09/07 04:43:07;;;;;;;4.80;3.13;;;20.30;99.90;;;;;;5037283;28;20459;-70
2022/09/07 04:45:35;;;;;;;2.43;2.10;;;20.30;99.90;;;;;;5030469;28;20215;-70
2022/09/07 04:48:01;;;;;;;3.10;2.63;;;20.30;99.90;;;;;;5035966;28;20471;-70
2022/09/07 04:50:27;;;;;;;4.30;3.17;;;20.30;99.90;;;;;;5049895;28;20483;-69
2022/09/07 04:52:53;;;;;;;2.60;2.40;;;20.30;99.90;;;;;;5036294;28;20447;-71
2022/09/07 04:55:18;;;;;;;5.37;2.47;;;20.20;99.90;;;;;;5033677;28;20217;-70
2022/09/07 04:57:48;;;;;;;2.67;2.47;;;20.20;99.90;;;;;;5031945;28;20220;-70
2022/09/07 05:00:15;;;;;;;2.70;2.50;;;20.20;99.90;;;;;;5041102;28;20290;-70
2022/09/07 05:02:41;;;;;;;2.60;2.40;;;20.20;99.90;;;;;;5028994;28;20447;-70
2022/09/07 05:05:07;;;;;;;3.97;3.00;;;20.20;99.90;;;;;;5034238;28;20522;-69
2022/09/07 05:07:33;;;;;;;4.77;2.87;;;20.20;99.90;;;;;;5044217;28;20458;-70
2022/09/07 05:09:58;;;;;;;4.57;3.20;;;20.20;99.90;;;;;;5044869;28;20498;-70
2022/09/07 05:12:24;;;;;;;4.23;3.40;;;20.20;99.90;;;;;;5038145;28;20294;-69
2022/09/07 05:14:50;;;;;;;4.87;2.47;;;20.20;99.90;;;;;;5036248;28;20223;-70
2022/09/07 05:17:16;;;;;;;3.30;3.10;;;20.20;99.90;;;;;;5061768;28;20239;-70
2022/09/07 05:19:41;;;;;;;3.47;3.10;;;20.20;99.90;;;;;;5048764;28;20227;-70
2022/09/07 05:22:07;;;;;;;3.60;3.30;;;20.10;99.90;;;;;;5029974;28;20311;-69
2022/09/07 05:24:35;;;;;;;3.67;3.37;;;20.10;99.90;;;;;;5026716;28;20232;-69
2022/09/07 05:27:02;;;;;;;5.90;3.10;;;20.20;99.90;;;;;;5035774;28;20244;-70
2022/09/07 05:29:29;;;;;;;4.30;3.57;;;20.10;99.90;;;;;;5022543;28;20505;-70
2022/09/07 05:31:55;;;;;;;3.80;3.10;;;20.10;99.90;;;;;;5045135;28;20557;-70
2022/09/07 05:34:21;;;;;;;5.17;4.77;;;20.10;99.90;;;;;;5044929;28;20891;-70
2022/09/07 05:36:47;;;;;;;3.93;3.63;;;20.10;99.90;;;;;;5046226;28;20625;-70
2022/09/07 05:39:13;;;;;;;3.73;3.40;;;20.10;99.90;;;;;;5051533;28;20561;-70
2022/09/07 05:41:38;;;;;;;5.43;3.80;;;20.10;99.90;;;;;;5044473;28;20226;-70
2022/09/07 05:44:05;;;;;;;4.27;3.23;;;20.00;99.90;;;;;;5036457;28;20227;-71
2022/09/07 05:46:32;;;;;;;4.13;3.47;;;20.00;99.90;;;;;;5051669;28;20212;-70
2022/09/07 05:48:59;;;;;;;6.10;3.73;;;20.00;99.90;;;;;;5041069;28;20466;-70
2022/09/07 05:51:25;;;;;;;3.60;3.30;;;20.00;99.90;;;;;;5034745;28;20520;-70
2022/09/07 05:53:51;;;;;;;5.93;4.00;;;20.00;99.90;;;;;;5031354;28;20447;-70
2022/09/07 05:56:16;;;;;;;4.17;3.40;;;20.00;99.90;;;;;;5035609;28;20493;-72
2022/09/07 05:58:47;;;;;;;4.33;4.03;;;20.00;99.90;;;;;;5044994;28;20231;-71
2022/09/07 06:01:13;;;;;;;5.83;4.93;;;20.10;99.90;;;;;;5053629;28;20601;-70
2022/09/07 06:03:40;;;;;;;4.50;3.57;;;20.00;99.90;;;;;;5040820;28;20847;-70
2022/09/07 06:06:10;;;;;;;4.10;3.60;;;20.00;99.90;;;;;;5031368;28;20700;-70
2022/09/07 06:08:38;;;;;;;5.07;4.10;;;20.00;99.90;;;;;;5049554;28;20557;-71
2022/09/07 06:11:12;;;;;;;4.93;4.50;;;20.00;99.90;;;;;;5037871;28;20467;-71
2022/09/07 06:13:38;;;;;;;5.30;4.03;;;20.00;99.90;;;;;;5037238;28;20462;-70
2022/09/07 06:16:06;;;;;;;4.70;3.93;;;20.00;99.90;;;;;;5034467;28;20493;-72
2022/09/07 06:18:37;;;;;;;4.80;3.80;;;20.00;99.90;;;;;;5039686;28;20525;-70
2022/09/07 06:21:20;;;;;;;3.90;3.60;;;20.00;99.90;;;;;;5034451;28;20548;-71
2022/09/07 06:23:47;;;;;;;5.00;4.00;;;20.00;99.90;;;;;;5049752;28;20507;-70
2022/09/07 06:26:15;;;;;;;4.47;3.50;;;20.00;99.90;;;;;;5024606;28;20996;-70
2022/09/07 06:28:43;;;;;;;5.73;3.37;;;20.10;99.90;;;;;;5047761;28;20458;-71
2022/09/07 06:31:13;;;;;;;3.53;3.20;;;20.10;99.90;;;;;;5037526;28;20478;-70
2022/09/07 06:33:40;;;;;;;3.73;3.43;;;20.10;99.90;;;;;;5036344;28;20477;-70
2022/09/07 06:36:11;;;;;;;4.07;3.53;;;20.10;99.90;;;;;;5043451;28;20504;-70
2022/09/07 06:38:37;;;;;;;3.73;3.27;;;20.20;99.90;;;;;;5055197;28;20466;-70
2022/09/07 06:41:05;;;;;;;4.60;2.83;;;20.20;99.90;;;;;;5039852;28;20450;-70
2022/09/07 06:43:35;;;;;;;3.93;3.10;;;20.20;99.90;;;;;;5046181;28;20533;-71
2022/09/07 06:46:01;;;;;;;5.67;3.73;;;20.20;99.90;;;;;;5058927;28;20462;-69
2022/09/07 06:48:27;;;;;;;3.73;3.33;;;20.20;99.90;;;;;;5039348;28;20466;-70
2022/09/07 06:51:08;;;;;;;3.90;2.97;;;20.20;99.90;;;;;;5039912;28;20460;-70
2022/09/07 06:53:36;;;;;;;3.00;2.80;;;20.30;99.90;;;;;;5043553;28;20228;-71
2022/09/07 06:56:06;;;;;;;3.13;2.93;;;20.30;99.90;;;;;;5034116;28;20467;-70
2022/09/07 06:58:32;;;;;;;7.90;3.20;;;20.30;99.90;;;;;;5037594;28;20853;-70
2022/09/07 07:00:57;;;;;;;4.40;3.50;;;20.30;99.90;;;;;;5040422;28;20459;-70
2022/09/07 07:03:23;;;;;;;5.47;3.80;;;20.30;99.90;;;;;;5052933;28;20446;-70
2022/09/07 07:05:51;;;;;;;4.10;3.60;;;20.40;99.90;;;;;;5035607;28;20759;-71
2022/09/07 07:08:17;;;;;;;4.40;3.47;;;20.40;99.90;;;;;;5025844;28;20223;-70
2022/09/07 07:10:43;;;;;;;4.30;2.93;;;20.40;99.90;;;;;;5038483;28;20859;-71
2022/09/07 07:13:09;;;;;;;4.00;3.70;;;20.50;99.90;;;;;;5042978;28;20243;-69
2022/09/07 07:15:35;;;;;;;7.57;3.50;;;20.50;99.90;;;;;;5047531;28;20454;-70
2022/09/07 07:18:00;;;;;;;3.30;3.00;;;20.60;99.90;;;;;;5057185;28;20719;-71
2022/09/07 07:20:26;;;;;;;3.40;3.13;;;20.60;99.90;;;;;;5039499;28;20229;-70
2022/09/07 07:22:52;;;;;;;4.40;3.20;;;20.70;99.90;;;;;;5034717;28;20768;-71
2022/09/07 07:25:18;;;;;;;4.03;2.83;;;20.70;99.90;;;;;;5053748;28;20242;-71
2022/09/07 07:27:44;;;;;;;3.00;2.80;;;20.70;99.90;;;;;;5043582;28;20240;-70
2022/09/07 07:30:14;;;;;;;4.27;2.70;;;20.80;99.90;;;;;;5048648;28;20691;-70
2022/09/07 07:32:40;;;;;;;3.17;2.43;;;20.90;99.90;;;;;;5037784;28;20462;-71
2022/09/07 07:35:07;;;;;;;3.27;2.67;;;20.90;99.90;;;;;;5041913;28;20458;-71
2022/09/07 07:37:35;;;;;;;5.10;3.20;;;20.90;99.90;;;;;;5041922;28;20459;-70
2022/09/07 07:40:02;;;;;;;4.90;2.97;;;21.00;99.90;;;;;;5033316;28;20467;-70
2022/09/07 07:42:28;;;;;;;5.13;3.00;;;21.10;99.90;;;;;;5052619;28;20985;-71
2022/09/07 07:44:54;;;;;;;3.37;3.07;;;21.10;99.90;;;;;;5039471;28;20466;-70
2022/09/07 07:47:20;;;;;;;4.00;2.67;;;21.20;99.90;;;;;;5044654;28;20255;-70
2022/09/07 07:49:46;;;;;;;9.43;2.70;;;21.20;99.90;;;;;;5026524;28;20506;-70
2022/09/07 07:52:12;;;;;;;2.70;2.10;;;21.20;99.90;;;;;;5040256;28;20537;-70
2022/09/07 07:54:38;;;;;;;4.40;3.20;;;21.30;99.90;;;;;;5035658;28;20686;-70
2022/09/07 07:57:05;;;;;;;2.97;2.70;;;21.30;99.90;;;;;;5039458;28;20465;-70
2022/09/07 07:59:30;;;;;;;2.93;2.53;;;21.30;99.90;;;;;;5055735;28;20216;-70
2022/09/07 08:01:56;;;;;;;3.60;3.30;;;21.30;99.90;;;;;;5039750;28;20438;-69
2022/09/07 08:04:22;;;;;;;6.23;2.50;;;21.40;99.90;;;;;;5043673;28;20220;-71
2022/09/07 08:06:47;;;;;;;5.63;2.50;;;21.50;99.90;;;;;;5031147;28;20546;-71
2022/09/07 08:09:13;;;;;;;3.00;2.80;;;21.50;99.90;;;;;;5037283;28;20223;-70
2022/09/07 08:11:39;;;;;;;2.40;2.13;;;21.60;99.90;;;;;;5027595;28;20227;-70
2022/09/07 08:14:05;;;;;;;4.00;2.90;;;21.60;99.90;;;;;;5039390;28;20695;-71
2022/09/07 08:16:32;;;;;;;2.80;2.60;;;21.60;99.90;;;;;;5036344;28;20699;-70
2022/09/07 08:18:58;;;;;;;3.13;2.57;;;21.70;99.90;;;;;;5043179;28;20467;-71
2022/09/07 08:21:24;;;;;;;3.00;2.70;;;21.80;99.90;;;;;;5041087;28;20465;-70
2022/09/07 08:23:50;;;;;;;3.93;3.13;;;21.80;99.90;;;;;;5044309;28;20215;-70
2022/09/07 08:26:16;;;;;;;4.10;3.00;;;21.90;99.90;;;;;;5034167;28;20233;-71
2022/09/07 08:28:45;;;;;;;4.60;3.03;;;22.00;99.90;;;;;;5043547;28;20613;-70
2022/09/07 08:31:13;;;;;;;4.00;3.60;;;22.00;99.90;;;;;;5043923;28;20500;-71
2022/09/07 08:33:40;;;;;;;3.47;3.17;;;22.10;99.90;;;;;;5041523;28;20460;-71
2022/09/07 08:36:09;;;;;;;2.83;2.63;;;22.20;99.90;;;;;;5045998;28;20450;-71
2022/09/07 08:38:36;;;;;;;4.93;2.87;;;22.20;99.90;;;;;;5060209;28;20516;-71
2022/09/07 08:41:17;;;;;;;3.17;2.90;;;22.30;99.90;;;;;;5044961;28;20457;-70
2022/09/07 08:43:57;;;;;;;3.63;2.80;;;22.30;99.90;;;;;;5041884;28;20459;-70
2022/09/07 08:46:29;;;;;;;4.90;3.10;;;22.40;99.90;;;;;;5041405;28;20447;-70
2022/09/07 08:48:58;;;;;;;4.73;3.40;;;22.50;99.90;;;;;;5044807;28;20909;-71
2022/09/07 08:51:31;;;;;;;3.83;3.53;;;22.60;99.90;;;;;;5032626;28;20583;-70
2022/09/07 08:53:58;;;;;;;3.57;3.23;;;22.70;99.90;;;;;;5039262;28;20827;-71
2022/09/07 08:56:27;;;;;;;3.40;3.10;;;22.80;99.90;;;;;;5046782;28;20467;-71
2022/09/07 08:58:53;;;;;;;4.23;3.77;;;22.90;99.90;;;;;;5046685;28;20536;-71
2022/09/07 09:01:29;;;;;;;3.77;3.47;;;23.00;99.90;;;;;;5041981;28;20460;-71
2022/09/07 09:03:55;;;;;;;4.47;3.50;;;23.10;99.90;;;;;;5019746;28;20735;-70
2022/09/07 09:06:27;;;;;;;3.60;3.30;;;23.20;99.90;;;;;;5035730;28;20447;-70
2022/09/07 09:09:09;;;;;;;3.93;3.50;;;23.20;99.90;;;;;;5035206;28;20281;-70
2022/09/07 09:12:03;;;;;;;6.33;3.47;;;23.30;99.90;;;;;;5050765;28;20473;-70
2022/09/07 09:14:33;;;;;;;6.53;4.17;;;23.40;99.90;;;;;;5049629;28;20457;-70
2022/09/07 09:17:06;;;;;;;4.13;3.73;;;23.60;99.90;;;;;;5050363;28;20474;-70
2022/09/07 09:20:07;;;;;;;8.73;3.13;;;23.60;99.90;;;;;;5048161;28;20461;-70
2022/09/07 09:22:34;;;;;;;4.30;3.40;;;23.70;99.90;;;;;;5048922;28;20593;-70
2022/09/07 09:24:59;;;;;;;3.40;3.20;;;23.80;99.90;;;;;;5051542;28;20786;-70
2022/09/07 09:27:25;;;;;;;4.53;3.40;;;23.90;99.90;;;;;;5053024;28;20558;-70
2022/09/07 09:29:50;;;;;;;3.90;3.50;;;23.90;99.90;;;;;;5067862;28;20219;-70
2022/09/07 09:32:30;;;;;;;5.47;3.67;;;24.10;99.90;;;;;;5051127;28;20215;-70
2022/09/07 09:35:30;;;;;;;3.87;3.57;;;24.10;99.90;;;;;;5041022;28;20215;-70
2022/09/07 09:37:59;;;;;;;4.07;3.73;;;24.20;99.90;;;;;;5033296;28;20503;-70
2022/09/07 09:40:28;;;;;;;3.70;3.33;;;24.30;99.90;;;;;;5051895;28;20465;-70
2022/09/07 09:43:15;;;;;;;6.40;3.40;;;24.40;99.90;;;;;;5050538;28;20532;-70
2022/09/07 09:46:01;;;;;;;4.47;4.07;;;24.40;99.90;;;;;;5048871;28;20517;-70
2022/09/07 09:48:33;;;;;;;5.80;4.40;;;24.40;99.90;;;;;;5049532;28;20504;-70
2022/09/07 09:51:01;;;;;;;4.13;3.67;;;24.50;99.90;;;;;;5050876;28;20471;-70
2022/09/07 09:53:42;;;;;;;3.60;3.30;;;24.60;99.90;;;;;;5049067;28;20465;-70
2022/09/07 09:56:08;;;;;;;4.80;4.40;;;24.70;99.90;;;;;;5052000;28;20474;-69
2022/09/07 09:58:36;;;;;;;7.07;4.30;;;24.80;99.90;;;;;;5032290;28;20520;-70
2022/09/07 10:01:19;;;;;;;4.10;3.80;;;24.90;99.90;;;;;;5051980;28;20986;-69
2022/09/07 10:03:45;;;;;;;5.60;5.20;;;24.90;99.90;;;;;;5033487;28;20480;-70
2022/09/07 10:06:14;;;;;;;4.20;3.90;;;25.10;99.90;;;;;;5034792;28;20979;-69
2022/09/07 10:08:56;;;;;;;5.23;4.37;;;25.10;99.90;;;;;;5050527;28;20270;-70
2022/09/07 10:11:41;;;;;;;7.37;4.70;;;25.20;99.90;;;;;;5049524;28;20476;-70
2022/09/07 10:14:22;;;;;;;6.03;4.40;;;25.30;99.90;;;;;;5033483;28;21093;-70
2022/09/07 10:16:48;;;;;;;4.80;4.40;;;25.30;99.90;;;;;;5045231;28;20451;-68
2022/09/07 10:19:22;;;;;;;4.83;4.30;;;25.40;99.90;;;;;;5044603;28;21020;-69
2022/09/07 10:21:56;;;;;;;5.10;4.67;;;25.50;99.90;;;;;;5044067;28;20227;-70
2022/09/07 10:24:29;;;;;;;4.23;3.83;;;25.50;99.90;;;;;;5039932;28;20469;-70
2022/09/07 10:26:55;;;;;;;4.43;4.03;;;25.50;99.90;;;;;;5043539;28;20465;-70
2022/09/07 10:29:23;;;;;;;4.43;4.03;;;25.60;99.90;;;;;;5054766;28;20869;-70
2022/09/07 10:32:17;;;;;;;5.23;4.73;;;25.70;99.90;;;;;;5036629;28;20234;-70
2022/09/07 10:34:57;;;;;;;6.90;4.47;;;25.90;99.90;;;;;;5045425;28;20466;-69
2022/09/07 10:37:34;;;;;;;5.23;4.23;;;26.00;99.90;;;;;;5039476;28;20504;-70
2022/09/07 10:40:20;;;;;;;5.50;5.00;;;26.10;99.90;;;;;;5058379;28;20450;-69
2022/09/07 10:43:09;;;;;;;5.17;4.63;;;26.10;99.90;;;;;;5043068;28;20447;-70
2022/09/07 10:45:59;;;;;;;5.10;4.70;;;26.10;99.90;;;;;;5047631;28;20446;-70
2022/09/07 10:49:06;;;;;;;5.00;4.43;;;26.20;99.90;;;;;;5045205;28;20467;-69
2022/09/07 10:52:09;;;;;;;4.67;4.27;;;26.40;99.90;;;;;;5006777;28;20485;-70
2022/09/07 10:54:52;;;;;;;5.53;4.13;;;26.40;99.90;;;;;;5044901;28;20458;-70
2022/09/07 10:57:50;;;;;;;4.47;4.07;;;26.50;99.90;;;;;;5041152;28;20524;-70
2022/09/07 11:00:18;;;;;;;4.50;4.10;;;26.60;99.90;;;;;;5042467;28;20881;-70
2022/09/07 11:02:52;;;;;;;4.57;4.23;;;26.70;99.90;;;;;;5043893;28;20936;-70
2022/09/07 11:05:33;;;;;;;5.03;4.47;;;26.70;99.90;;;;;;5034793;28;20502;-70
2022/09/07 11:08:37;;;;;;;3.70;3.43;;;26.70;99.90;;;;;;5052276;28;20461;-70
2022/09/07 11:11:32;;;;;;;4.10;3.70;;;26.80;99.90;;;;;;5035906;28;20465;-69
2022/09/07 11:14:09;;;;;;;4.20;3.53;;;26.90;99.90;;;;;;5055766;28;20277;-71
2022/09/07 11:16:41;;;;;;;3.50;3.30;;;27.00;99.90;;;;;;5039463;28;20461;-70
2022/09/07 11:19:14;;;;;;;4.10;3.77;;;27.00;99.90;;;;;;5045696;28;20468;-70
2022/09/07 11:22:17;;;;;;;3.60;3.30;;;27.10;99.90;;;;;;5021238;28;20472;-70
2022/09/07 11:25:03;;;;;;;3.73;3.43;;;27.10;99.90;;;;;;5038226;28;20553;-70
2022/09/07 11:27:38;;;;;;;4.20;2.93;;;27.10;99.90;;;;;;5052562;28;20486;-70
2022/09/07 11:30:18;;;;;;;5.20;3.37;;;27.20;99.90;;;;;;5045388;28;20530;-70
2022/09/07 11:33:18;;;;;;;4.40;4.00;;;27.20;99.90;;;;;;5046617;28;20534;-70
2022/09/07 11:36:01;;;;;;;3.53;3.10;;;27.20;99.90;;;;;;5042593;28;20458;-70
2022/09/07 11:38:47;;;;;;;4.27;3.87;;;27.20;99.90;;;;;;5047636;28;20474;-70
2022/09/07 11:41:24;;;;;;;4.03;3.40;;;27.10;99.90;;;;;;5045267;28;20471;-70
2022/09/07 11:44:01;;;;;;;4.17;3.87;;;27.10;99.90;;;;;;5043908;28;20448;-69
2022/09/07 11:46:42;;;;;;;4.90;4.50;;;27.10;99.90;;;;;;5059645;28;20455;-70
2022/09/07 11:49:18;;;;;;;6.13;3.40;;;27.00;99.90;;;;;;5045445;28;20460;-70
2022/09/07 11:51:47;;;;;;;5.03;4.50;;;27.00;99.90;;;;;;5031928;28;20832;-70
2022/09/07 11:54:32;;;;;;;4.27;3.87;;;27.00;99.90;;;;;;5030869;28;20469;-70
2022/09/07 11:57:19;;;;;;;3.90;3.60;;;27.00;99.90;;;;;;5043970;28;20557;-69
2022/09/07 11:59:47;;;;;;;5.10;4.60;;;27.00;99.90;;;;;;5047158;28;20447;-70
2022/09/07 12:02:47;;;;;;;8.60;3.97;;;27.00;99.90;;;;;;5057430;28;20760;-70
2022/09/07 12:05:40;;;;;;;4.43;3.80;;;26.90;99.90;;;;;;5041576;28;21033;-70
2022/09/07 12:08:24;;;;;;;4.03;3.63;;;26.90;99.90;;;;;;5045701;28;20458;-70
2022/09/07 12:11:12;;;;;;;4.03;3.73;;;26.80;99.90;;;;;;5042677;28;20511;-70
2022/09/07 12:13:46;;;;;;;4.50;3.67;;;26.90;99.90;;;;;;5042448;28;20454;-70
2022/09/07 12:16:35;;;;;;;3.73;3.43;;;26.80;99.50;;;;;;5044853;28;20453;-70
2022/09/07 12:19:18;;;;;;;3.93;3.63;;;26.80;99.70;;;;;;5040938;28;20533;-70
2022/09/07 12:21:52;;;;;;;4.00;3.70;;;26.90;99.90;;;;;;5037788;28;20471;-70
2022/09/07 12:24:57;;;;;;;3.87;3.57;;;27.10;99.70;;;;;;5037960;28;20984;-70
2022/09/07 12:27:22;;;;;;;3.27;3.07;;;27.30;99.10;;;;;;5050610;28;21028;-70
2022/09/07 12:29:55;;;;;;;3.93;3.63;;;27.40;97.40;;;;;;5032311;28;20475;-70
2022/09/07 12:32:45;;;;;;;3.23;2.93;;;27.40;96.90;;;;;;5045771;28;20228;-70
2022/09/07 12:35:32;;;;;;;3.33;3.13;;;27.50;96.30;;;;;;5044419;28;20897;-69
2022/09/07 12:37:59;;;;;;;3.20;3.00;;;27.50;96.90;;;;;;5037024;28;20452;-70
2022/09/07 12:40:31;;;;;;;3.50;3.30;;;27.60;97.20;;;;;;5038679;28;21045;-70
2022/09/07 12:43:13;;;;;;;5.70;2.93;;;27.60;97.20;;;;;;5051924;28;20534;-70
2022/09/07 12:45:38;;;;;;;3.23;3.03;;;27.60;96.20;;;;;;5040220;28;20537;-70
2022/09/07 12:48:16;;;;;;;3.47;3.00;;;27.60;96.20;;;;;;5051079;28;20531;-70
2022/09/07 12:51:00;;;;;;;5.23;2.93;;;27.60;96.20;;;;;;5042698;28;20226;-70
2022/09/07 12:53:46;;;;;;;2.90;2.70;;;27.60;95.50;;;;;;5039247;28;20472;-70
2022/09/07 12:56:37;;;;;;;3.70;2.63;;;27.60;95.30;;;;;;5039838;28;20459;-70
2022/09/07 12:59:17;;;;;;;4.25;2.80;;;27.60;95.10;;;;;;5046119;28;20475;-70
2022/09/07 13:01:48;;;;;;;2.20;2.07;;;27.60;94.50;;;;;;5056137;28;20223;-70
2022/09/07 13:04:41;;;;;;;2.30;2.10;;;27.70;93.20;;;;;;5059905;28;20501;-70
2022/09/07 13:07:21;;;;;;;2.20;2.10;;;27.70;92.50;;;;;;5036374;28;20444;-70
2022/09/07 13:09:58;;;;;;;2.60;2.10;;;27.70;92.70;;;;;;5049073;28;20458;-70
2022/09/07 13:12:32;;;;;;;2.07;1.93;;;27.80;92.60;;;;;;5051085;28;20831;-71
2022/09/07 13:14:59;;;;;;;2.20;1.80;;;27.80;92.20;;;;;;5047201;28;20218;-70